createdAt,value
2016-12-05T00:00:04.699Z,89.5
2016-12-05T00:05:05.027Z,89.31
2016-12-05T00:10:04.516Z,89.5
2016-12-05T00:15:05.032Z,89.78
2016-12-05T00:20:05.001Z,90.64
2016-12-05T00:25:04.276Z,91.77
2016-12-05T00:30:04.152Z,92.24
2016-12-05T00:35:05.216Z,92.33
2016-12-05T00:40:04.251Z,92.71
2016-12-05T00:45:04.678Z,93.28
2016-12-05T00:50:04.670Z,93.56
2016-12-05T00:55:04.678Z,93.56
2016-12-05T01:00:04.573Z,93.28
2016-12-05T01:05:05.258Z,92.9
2016-12-05T01:10:04.271Z,92.9
2016-12-05T01:15:05.016Z,92.85
2016-12-05T01:20:04.407Z,92.66
2016-12-05T01:25:04.516Z,92.95
2016-12-05T01:30:04.859Z,93.61
2016-12-05T01:35:05.266Z,94.74
2016-12-05T01:40:05.135Z,95.4
2016-12-05T01:45:05.030Z,96.15
2016-12-05T01:50:04.742Z,97.38
2016-12-05T01:55:04.421Z,97.95
2016-12-05T02:00:04.282Z,98.52
2016-12-05T02:05:04.631Z,98.9
2016-12-05T02:10:04.252Z,99.18
2016-12-05T02:15:04.734Z,99.74
2016-12-05T02:20:05.358Z,99.99
2016-12-05T02:25:04.333Z,99.99
2016-12-05T02:30:04.826Z,99.99
2016-12-05T02:35:04.668Z,99.99
2016-12-05T02:40:04.891Z,99.99
2016-12-05T02:45:04.149Z,99.99
2016-12-05T02:50:04.272Z,99.99
2016-12-05T02:55:04.532Z,99.99
2016-12-05T03:00:05.027Z,99.99
2016-12-05T03:05:05.801Z,99.99
2016-12-05T03:10:04.890Z,99.99
2016-12-05T03:15:05.068Z,99.99
2016-12-05T03:20:04.995Z,99.99
2016-12-05T03:25:05.017Z,99.99
2016-12-05T03:30:05.249Z,99.99
2016-12-05T03:35:04.235Z,99.99
2016-12-05T03:40:04.350Z,99.99
2016-12-05T03:45:04.166Z,99.99
2016-12-05T03:50:04.580Z,99.99
2016-12-05T03:55:04.465Z,99.99
2016-12-05T04:00:04.996Z,99.99
2016-12-05T04:05:05.607Z,99.99
2016-12-05T04:10:04.509Z,99.99
2016-12-05T04:15:04.879Z,99.99
2016-12-05T04:20:04.394Z,99.99
2016-12-05T04:25:04.442Z,99.99
2016-12-05T04:30:05.214Z,99.99
2016-12-05T04:35:05.094Z,99.99
2016-12-05T04:40:05.039Z,99.99
2016-12-05T04:45:05.119Z,99.99
2016-12-05T04:50:05.078Z,99.99
2016-12-05T04:55:04.296Z,99.99
2016-12-05T05:00:05.048Z,99.99
2016-12-05T05:05:04.412Z,99.99
2016-12-05T05:10:05.217Z,99.99
2016-12-05T05:15:05.158Z,99.99
2016-12-05T05:20:04.489Z,99.99
2016-12-05T05:25:04.598Z,99.99
2016-12-05T05:30:04.639Z,99.99
2016-12-05T05:35:04.482Z,99.99
2016-12-05T05:40:05.031Z,99.99
2016-12-05T05:45:05.020Z,99.99
2016-12-05T05:50:04.038Z,99.99
2016-12-05T05:55:04.633Z,99.99
2016-12-05T06:00:05.227Z,99.99
2016-12-05T06:05:04.842Z,99.99
2016-12-05T06:10:05.361Z,99.99
2016-12-05T06:15:04.604Z,99.99
2016-12-05T06:20:04.676Z,99.84
2016-12-05T06:25:04.592Z,99.55
2016-12-05T06:30:05.056Z,99.37
2016-12-05T06:35:04.351Z,98.99
2016-12-05T06:40:04.655Z,98.99
2016-12-05T06:45:04.988Z,98.33
2016-12-05T06:50:05.318Z,97.85
2016-12-05T06:55:04.830Z,96.95
2016-12-05T07:00:05.001Z,96.86
2016-12-05T07:05:04.617Z,96.95
2016-12-05T07:10:04.696Z,96.86
2016-12-05T07:15:04.985Z,97.33
2016-12-05T07:20:05.319Z,97.52
2016-12-05T07:25:04.894Z,98.09
2016-12-05T07:30:04.062Z,98.84
2016-12-05T07:35:05.218Z,99.6
2016-12-05T07:40:04.372Z,99.41
2016-12-05T07:45:04.675Z,98.99
2016-12-05T07:50:04.320Z,99.18
2016-12-05T07:55:04.356Z,99.99
2016-12-05T08:00:04.932Z,99.99
2016-12-05T08:05:04.405Z,99.99
2016-12-05T08:10:05.064Z,99.99
2016-12-05T08:15:04.338Z,99.99
2016-12-05T08:20:05.214Z,99.99
2016-12-05T08:25:04.539Z,99.99
2016-12-05T08:30:04.970Z,99.99
2016-12-05T08:35:05.009Z,99.99
2016-12-05T08:40:04.338Z,99.99
2016-12-05T08:45:04.727Z,99.99
2016-12-05T08:50:05.094Z,99.99
2016-12-05T08:55:04.358Z,99.99
2016-12-05T09:00:04.698Z,99.99
2016-12-05T09:05:05.034Z,99.99
2016-12-05T09:10:04.556Z,99.99
2016-12-05T09:15:04.950Z,99.99
2016-12-05T09:20:04.479Z,99.99
2016-12-05T09:25:05.773Z,99.99
2016-12-05T09:30:04.314Z,99.99
2016-12-05T09:35:04.722Z,98.17
2016-12-05T09:40:05.287Z,94.89
2016-12-05T09:45:05.271Z,88.37
2016-12-05T09:50:04.778Z,85.85
2016-12-05T09:55:04.349Z,83.75
2016-12-05T10:00:04.401Z,80.33
2016-12-05T10:05:05.159Z,79.13
2016-12-05T10:10:04.451Z,76.59
2016-12-05T10:15:05.020Z,75.93
2016-12-05T10:20:05.068Z,75.01
2016-12-05T10:25:04.892Z,73.39
2016-12-05T10:30:05.220Z,71.73
2016-12-05T10:35:04.340Z,72.25
2016-12-05T10:40:04.684Z,69.68
2016-12-05T10:45:04.321Z,71.01
2016-12-05T10:50:04.933Z,69.87
2016-12-05T10:55:04.314Z,68.76
2016-12-05T11:00:05.041Z,65.77
2016-12-05T11:05:04.883Z,67.39
2016-12-05T11:10:05.022Z,67.64
2016-12-05T11:15:05.120Z,68.56
2016-12-05T11:20:04.164Z,69.54
2016-12-05T11:25:04.315Z,68.85
2016-12-05T11:30:04.509Z,67.65
2016-12-05T11:35:04.544Z,66.38
2016-12-05T11:40:04.760Z,66.91
2016-12-05T11:45:05.080Z,66.44
2016-12-05T11:50:04.640Z,68.18
2016-12-05T11:55:05.083Z,67.33
2016-12-05T12:00:04.252Z,67.33
2016-12-05T12:05:04.722Z,66.02
2016-12-05T12:10:04.641Z,65.67
2016-12-05T12:15:04.606Z,66.53
2016-12-05T12:20:04.927Z,67.61
2016-12-05T12:25:04.811Z,67.1
2016-12-05T12:30:05.179Z,67.68
2016-12-05T12:35:04.524Z,67.39
2016-12-05T12:40:04.983Z,67.71
2016-12-05T12:45:04.517Z,67.9
2016-12-05T12:50:05.058Z,67.17
2016-12-05T12:55:04.498Z,65.96
2016-12-05T13:00:04.790Z,69.07
2016-12-05T13:05:04.893Z,69.35
2016-12-05T13:10:05.188Z,69.6
2016-12-05T13:15:04.604Z,69.99
2016-12-05T13:20:04.548Z,70.56
2016-12-05T13:25:04.177Z,70.9
2016-12-05T13:30:05.217Z,71.82
2016-12-05T13:35:04.670Z,73.32
2016-12-05T13:40:04.154Z,71.38
2016-12-05T13:45:04.325Z,71.83
2016-12-05T13:50:05.010Z,71.26
2016-12-05T13:55:05.337Z,72.6
2016-12-05T14:00:05.057Z,72.25
2016-12-05T14:05:05.021Z,70.95
2016-12-05T14:10:04.929Z,70.38
2016-12-05T14:15:05.109Z,70.28
2016-12-05T14:20:04.878Z,70.34
2016-12-05T14:25:04.518Z,70.12
2016-12-05T14:30:04.781Z,71.45
2016-12-05T14:35:04.762Z,71.73
2016-12-05T14:40:05.124Z,71.89
2016-12-05T14:45:04.479Z,72.27
2016-12-05T14:50:04.474Z,73.47
2016-12-05T14:55:04.840Z,73.85
2016-12-05T15:00:05.066Z,74.29
2016-12-05T15:05:04.503Z,75.68
2016-12-05T15:10:04.788Z,77.64
2016-12-05T15:15:05.181Z,78.55
2016-12-05T15:20:04.574Z,79.5
2016-12-05T15:25:04.423Z,81.36
2016-12-05T15:30:05.030Z,82.69
2016-12-05T15:35:04.729Z,84.83
2016-12-05T15:40:04.590Z,86.63
2016-12-05T15:45:04.465Z,88.68
2016-12-05T15:50:04.367Z,90.95
2016-12-05T15:55:04.863Z,95.65
2016-12-05T16:00:04.580Z,99.82
2016-12-05T16:05:04.692Z,99.99
2016-12-05T16:10:04.811Z,99.99
2016-12-05T16:15:05.139Z,99.99
2016-12-05T16:20:04.764Z,99.99
2016-12-05T16:25:05.150Z,99.99
2016-12-05T16:30:05.306Z,99.99
2016-12-05T16:35:04.632Z,99.99
2016-12-05T16:40:04.876Z,99.99
2016-12-05T16:45:05.014Z,99.99
2016-12-05T16:50:04.123Z,99.99
2016-12-05T16:55:04.682Z,99.99
2016-12-05T17:00:05.344Z,99.99
2016-12-05T17:05:04.448Z,99.99
2016-12-05T17:10:05.189Z,99.99
2016-12-05T17:15:04.393Z,99.99
2016-12-05T17:20:04.606Z,99.99
2016-12-05T17:25:04.773Z,99.99
2016-12-05T17:30:05.171Z,99.99
2016-12-05T17:35:04.691Z,99.99
2016-12-05T17:40:04.878Z,99.99
2016-12-05T17:45:04.454Z,99.99
2016-12-05T17:50:04.497Z,99.99
2016-12-05T17:55:04.648Z,99.99
2016-12-05T18:00:04.394Z,99.99
2016-12-05T18:05:04.456Z,99.99
2016-12-05T18:10:04.602Z,99.99
2016-12-05T18:15:05.103Z,99.99
2016-12-05T18:20:04.934Z,99.99
2016-12-05T18:25:04.839Z,99.99
2016-12-05T18:30:04.416Z,99.99
2016-12-05T18:35:04.972Z,99.99
2016-12-05T18:40:04.271Z,99.99
2016-12-05T18:45:04.691Z,99.99
2016-12-05T18:50:04.557Z,99.99
2016-12-05T18:55:04.412Z,99.99
2016-12-05T19:00:05.050Z,99.99
2016-12-05T19:05:04.941Z,99.99
2016-12-05T19:10:04.336Z,99.99
2016-12-05T19:15:04.579Z,99.99
2016-12-05T19:20:04.872Z,99.99
2016-12-05T19:25:04.987Z,99.99
2016-12-05T19:30:04.617Z,99.99
2016-12-05T19:35:15.733Z,99.99
2016-12-05T19:35:46.900Z,99.99
2016-12-05T19:40:05.161Z,99.99
2016-12-05T19:45:05.042Z,99.99
2016-12-05T19:50:05.206Z,99.99
2016-12-05T19:55:05.049Z,99.99
2016-12-05T20:00:04.948Z,98.57
2016-12-05T20:05:04.967Z,99.04
2016-12-05T20:10:04.561Z,98.28
2016-12-05T20:15:05.398Z,96.59
2016-12-05T20:20:04.958Z,96.68
2016-12-05T20:25:05.069Z,95.97
2016-12-05T20:30:04.535Z,95.03
2016-12-05T20:35:05.367Z,94.27
2016-12-05T20:40:05.147Z,93.89
2016-12-05T20:45:04.763Z,92.57
2016-12-05T20:50:04.673Z,92.1
2016-12-05T20:55:04.645Z,90.87
2016-12-05T21:00:05.164Z,89.36
2016-12-05T21:05:05.327Z,88.79
2016-12-05T21:10:04.618Z,88.13
2016-12-05T21:15:04.521Z,87.28
2016-12-05T21:20:04.512Z,86.05
2016-12-05T21:25:05.084Z,85.01
2016-12-05T21:30:04.846Z,83.97
2016-12-05T21:35:04.791Z,83.03
2016-12-05T21:40:04.996Z,82.56
2016-12-05T21:45:04.974Z,82.18
2016-12-05T21:50:05.250Z,81.42
2016-12-05T21:55:04.961Z,80.38
2016-12-05T22:00:05.354Z,79.53
2016-12-05T22:05:04.963Z,78.59
2016-12-05T22:10:04.897Z,79.4
2016-12-05T22:15:06.074Z,79.02
2016-12-05T22:20:04.950Z,77.23
2016-12-05T22:25:04.930Z,75.24
2016-12-05T22:30:04.756Z,74.02
2016-12-05T22:35:05.259Z,73.07
2016-12-05T22:40:04.504Z,72.41
2016-12-05T22:45:04.789Z,71.94
2016-12-05T22:50:04.661Z,71.75
2016-12-05T22:55:05.264Z,71.56
2016-12-05T23:00:04.514Z,71.28
2016-12-05T23:05:04.654Z,70.53
2016-12-05T23:10:05.042Z,69.49
2016-12-05T23:15:05.468Z,68.73
2016-12-05T23:20:04.440Z,67.88
2016-12-05T23:25:04.624Z,66.65
2016-12-05T23:30:04.509Z,64.58
2016-12-05T23:35:04.810Z,63.73
2016-12-05T23:40:04.394Z,64.39
2016-12-05T23:45:04.602Z,63.63
2016-12-05T23:50:04.485Z,62.21
2016-12-05T23:55:04.705Z,60.89
